Time;durP1;ratioP1;P1;durP2;ratioP2;P2;SDS_P1;SDS_P2;PMS_P1;PMS_P2;Temp;Humidity;BMP_temperature;BMP_pressure;BME280_temperature;BME280_humidity;BME280_pressure;Samples;Min_cycle;Max_cycle;Signal;HPM_P1;HPM_P2
2023/05/29 00:02:04;;;;;;;2.15;0.40;;;;;;;13.28;48.07;101788.44;4949251;28;20051;-70
2023/05/29 00:04:30;;;;;;;0.75;0.17;;;;;;;13.26;48.19;101794.59;4953854;28;20058;-70
2023/05/29 00:06:57;;;;;;;0.77;0.20;;;;;;;13.23;47.85;101798.13;4962654;28;20050;-70
2023/05/29 00:09:25;;;;;;;0.40;0.20;;;;;;;13.04;48.38;101770.38;4959999;28;20598;-70
2023/05/29 00:11:52;;;;;;;0.60;0.25;;;;;;;13.19;48.07;101800.78;4965863;28;20051;-70
2023/05/29 00:14:20;;;;;;;1.05;0.20;;;;;;;13.16;48.44;101806.06;4966310;28;20046;-70
2023/05/29 00:16:48;;;;;;;0.30;0.30;;;;;;;13.15;48.92;101801.69;4966262;28;20065;-70
2023/05/29 00:19:19;;;;;;;0.80;0.20;;;;;;;13.12;48.83;101802.63;4966987;28;20133;-70
2023/05/29 00:21:47;;;;;;;0.43;0.20;;;;;;;13.12;48.75;101805.25;4965342;28;20410;-70
2023/05/29 00:24:14;;;;;;;1.92;0.30;;;;;;;13.10;48.31;101816.66;4968447;28;20051;-70
2023/05/29 00:26:41;;;;;;;2.10;0.17;;;;;;;13.06;48.52;101810.56;4966700;28;20051;-70
2023/05/29 00:29:08;;;;;;;0.28;0.20;;;;;;;13.05;48.55;101814.06;4964568;28;20054;-70
2023/05/29 00:31:36;;;;;;;0.60;0.57;;;;;;;13.02;48.88;101812.34;4965578;28;20065;-69
2023/05/29 00:34:03;;;;;;;1.13;0.30;;;;;;;12.99;48.75;101806.28;4962985;28;20134;-70
2023/05/29 00:36:32;;;;;;;1.27;0.20;;;;;;;12.94;48.85;101815.97;4964023;28;20050;-70
2023/05/29 00:38:59;;;;;;;0.30;0.20;;;;;;;12.79;49.12;101789.03;4966192;28;20050;-70
2023/05/29 00:41:26;;;;;;;0.40;0.17;;;;;;;12.91;48.95;101810.75;4964786;28;20444;-70
2023/05/29 00:43:53;;;;;;;0.45;0.20;;;;;;;12.91;48.80;101818.63;4956013;28;20057;-70
2023/05/29 00:46:20;;;;;;;0.30;0.20;;;;;;;12.91;48.64;101821.25;4964961;28;20086;-70
2023/05/29 00:48:48;;;;;;;0.40;0.20;;;;;;;12.79;49.01;101803.91;4964418;28;20062;-70
2023/05/29 00:51:16;;;;;;;0.47;0.20;;;;;;;12.87;49.01;101824.78;4966861;28;20067;-70
2023/05/29 00:53:46;;;;;;;1.33;0.25;;;;;;;12.77;48.96;101809.13;4969198;28;20059;-71
2023/05/29 00:56:13;;;;;;;3.22;0.28;;;;;;;12.78;49.03;101810.91;4963511;28;20101;-70
2023/05/29 00:58:41;;;;;;;0.20;0.13;;;;;;;12.80;48.85;101821.34;4964129;28;20415;-70
2023/05/29 01:01:08;;;;;;;0.40;0.20;;;;;;;12.78;48.75;101831.88;4966795;28;20793;-70
2023/05/29 01:03:35;;;;;;;0.60;0.15;;;;;;;12.75;48.56;101836.25;4961131;28;20051;-70
2023/05/29 01:06:03;;;;;;;2.05;0.20;;;;;;;12.74;48.70;101842.41;4961980;28;20054;-70
2023/05/29 01:08:30;;;;;;;1.63;0.28;;;;;;;12.71;48.62;101840.66;4962777;28;20047;-71
2023/05/29 01:11:06;;;;;;;1.85;0.20;;;;;;;12.68;48.72;101843.31;4962166;28;20051;-70
2023/05/29 01:13:36;;;;;;;0.40;0.20;;;;;;;12.59;48.19;101836.41;4963378;28;20059;-70
2023/05/29 01:16:13;;;;;;;0.93;0.10;;;;;;;12.61;48.50;101844.28;4965647;28;20515;-70
2023/05/29 01:18:47;;;;;;;0.28;0.20;;;;;;;12.58;48.33;101852.19;4960792;28;20047;-70
2023/05/29 01:21:23;;;;;;;0.80;0.20;;;;;;;12.55;47.63;101852.19;4966938;28;20418;-70
2023/05/29 01:24:11;;;;;;;0.47;0.17;;;;;;;12.54;47.91;101863.56;4962907;28;20046;-70
2023/05/29 01:26:51;;;;;;;0.95;0.17;;;;;;;12.51;47.91;101874.06;4961957;28;20061;-70
2023/05/29 01:29:22;;;;;;;0.88;0.10;;;;;;;12.48;47.67;101887.22;4965594;28;20549;-70
2023/05/29 01:31:50;;;;;;;0.30;0.17;;;;;;;12.44;47.69;101880.28;4957706;28;20051;-70
2023/05/29 01:34:17;;;;;;;0.75;0.10;;;;;;;12.41;47.65;101889.03;4962768;28;20046;-70
2023/05/29 01:36:46;;;;;;;1.73;0.10;;;;;;;12.37;47.80;101890.78;4961761;28;20051;-70
2023/05/29 01:39:14;;;;;;;0.90;0.10;;;;;;;12.33;47.92;101903.94;4959211;28;20414;-70
2023/05/29 01:41:43;;;;;;;0.25;0.17;;;;;;;12.32;47.43;101899.53;4967072;28;20137;-70
2023/05/29 01:44:13;;;;;;;1.10;0.25;;;;;;;12.28;47.69;101896.09;4962309;28;20054;-70
2023/05/29 01:46:41;;;;;;;1.23;0.20;;;;;;;12.24;47.19;101896.13;4964343;28;20433;-70
2023/05/29 01:49:09;;;;;;;0.43;0.10;;;;;;;12.14;47.16;101895.31;4966572;28;20055;-70
2023/05/29 01:51:36;;;;;;;0.95;0.10;;;;;;;12.14;47.21;101900.56;4965704;28;20519;-70
2023/05/29 01:54:05;;;;;;;0.10;0.10;;;;;;;12.00;46.66;101892.78;4963103;28;20046;-70
2023/05/29 01:56:32;;;;;;;0.52;0.10;;;;;;;12.11;46.96;101905.81;4962846;28;20052;-70
2023/05/29 01:59:01;;;;;;;0.38;0.10;;;;;;;12.05;46.58;101906.72;4961715;28;20129;-70
2023/05/29 02:01:30;;;;;;;1.50;0.10;;;;;;;12.05;46.47;101924.19;4965078;28;20047;-70
2023/05/29 02:03:57;;;;;;;0.52;0.10;;;;;;;12.01;46.35;101917.22;4960462;28;20043;-70
2023/05/29 02:06:24;;;;;;;0.95;0.10;;;;;;;11.97;46.57;101932.09;4962841;28;20423;-70
2023/05/29 02:08:51;;;;;;;0.88;0.13;;;;;;;11.96;46.49;101937.34;4966581;28;20047;-71
2023/05/29 02:11:18;;;;;;;0.55;0.10;;;;;;;11.92;46.59;101937.38;4964944;28;20050;-69
2023/05/29 02:13:45;;;;;;;1.38;0.10;;;;;;;11.91;46.24;101943.47;4963224;28;20050;-70
2023/05/29 02:16:12;;;;;;;0.10;0.00;;;;;;;11.90;45.94;101948.72;4965599;28;20047;-70
2023/05/29 02:18:41;;;;;;;0.13;0.00;;;;;;;11.83;46.03;101955.69;4961159;28;20051;-70
2023/05/29 02:21:08;;;;;;;2.33;0.10;;;;;;;11.81;45.63;101965.31;4962486;28;20047;-70
2023/05/29 02:23:35;;;;;;;0.70;0.70;;;;;;;11.79;44.56;101960.97;4962483;28;20053;-70
2023/05/29 02:26:02;;;;;;;1.00;0.10;;;;;;;11.73;45.07;101961.88;4965671;28;20046;-70
2023/05/29 02:28:29;;;;;;;0.10;0.00;;;;;;;11.71;44.85;101971.47;4959974;28;20065;-69
2023/05/29 02:30:56;;;;;;;0.50;0.15;;;;;;;11.67;44.97;101972.38;4963635;28;20047;-70
2023/05/29 02:33:22;;;;;;;0.20;0.00;;;;;;;11.57;44.71;101960.19;4963760;28;20078;-70
2023/05/29 02:35:51;;;;;;;0.00;0.00;;;;;;;11.53;44.12;101963.69;4964047;28;20058;-70
2023/05/29 02:38:19;;;;;;;0.60;0.00;;;;;;;11.56;44.16;101982.00;4964724;28;20047;-70
2023/05/29 02:40:45;;;;;;;0.10;0.00;;;;;;;11.53;44.57;101979.41;4963348;28;20046;-70
2023/05/29 02:43:14;;;;;;;0.20;0.00;;;;;;;11.49;44.09;101995.06;4966303;28;20522;-70
2023/05/29 02:45:41;;;;;;;0.20;0.10;;;;;;;11.44;43.17;101994.25;4960263;28;20069;-69
2023/05/29 02:48:08;;;;;;;0.43;0.10;;;;;;;11.40;43.23;101992.50;4962904;28;20053;-70
2023/05/29 02:50:35;;;;;;;1.92;0.10;;;;;;;11.36;43.47;101985.53;4964071;28;20049;-70
2023/05/29 02:53:03;;;;;;;0.20;0.00;;;;;;;11.32;43.31;101975.94;4962798;28;20050;-70
2023/05/29 02:55:31;;;;;;;1.00;0.30;;;;;;;11.28;43.39;101974.22;4957943;28;20059;-70
2023/05/29 02:57:59;;;;;;;0.30;0.00;;;;;;;11.32;43.88;101980.31;4967440;28;20043;-69
2023/05/29 03:00:28;;;;;;;0.30;0.00;;;;;;;11.32;44.08;101990.78;4968382;28;20062;-76
2023/05/29 03:02:55;;;;;;;0.63;0.00;;;;;;;11.32;43.76;101996.88;4967353;28;20082;-76
2023/05/29 03:05:22;;;;;;;1.50;0.00;;;;;;;11.23;43.95;101983.81;4966998;28;20050;-75
2023/05/29 03:07:49;;;;;;;2.05;0.10;;;;;;;11.25;44.04;101993.41;4963347;28;20127;-75
2023/05/29 03:10:18;;;;;;;1.48;0.00;;;;;;;11.25;43.34;102001.25;4966303;28;20067;-76
2023/05/29 03:12:45;;;;;;;1.90;0.47;;;;;;;11.22;43.19;102010.84;4970566;28;20513;-75
2023/05/29 03:15:12;;;;;;;0.25;0.00;;;;;;;11.21;43.18;102011.69;4966820;28;20050;-74
2023/05/29 03:17:39;;;;;;;0.75;0.00;;;;;;;11.16;43.35;102006.50;4967132;28;20062;-76
2023/05/29 03:20:07;;;;;;;1.80;0.05;;;;;;;11.12;43.45;102014.34;4970937;28;20947;-74
2023/05/29 03:22:35;;;;;;;1.15;0.10;;;;;;;11.14;43.33;102018.69;4968661;28;20051;-76
2023/05/29 03:25:03;;;;;;;2.20;0.10;;;;;;;11.12;43.18;102022.19;4969592;28;20191;-75
2023/05/29 03:27:32;;;;;;;0.85;0.00;;;;;;;11.11;43.73;102023.06;4967341;28;20135;-75
2023/05/29 03:29:59;;;;;;;2.03;0.10;;;;;;;11.09;43.85;102024.81;4963910;28;20053;-75
2023/05/29 03:32:26;;;;;;;1.02;0.10;;;;;;;11.11;43.91;102023.06;4968479;28;20061;-75
2023/05/29 03:34:53;;;;;;;1.63;0.20;;;;;;;11.10;43.65;102026.53;4967753;28;20107;-75
2023/05/29 03:37:20;;;;;;;0.57;0.10;;;;;;;11.06;43.55;102032.66;4969186;28;20043;-75
2023/05/29 03:39:47;;;;;;;1.05;0.10;;;;;;;11.03;43.53;102025.69;4966496;28;20054;-74
2023/05/29 03:42:14;;;;;;;2.63;0.22;;;;;;;11.00;43.84;102031.78;4968558;28;20054;-76
2023/05/29 03:44:43;;;;;;;1.52;0.10;;;;;;;10.94;44.18;102029.16;4966311;28;20051;-76
2023/05/29 03:47:09;;;;;;;0.32;0.10;;;;;;;10.91;44.13;102037.00;4967855;28;20047;-75
2023/05/29 03:49:36;;;;;;;2.08;0.10;;;;;;;10.91;44.15;102041.38;4962118;28;20133;-76
2023/05/29 03:52:03;;;;;;;1.02;0.10;;;;;;;10.85;44.78;102033.53;4968180;28;20057;-75
2023/05/29 03:54:30;;;;;;;0.70;0.20;;;;;;;10.86;44.45;102043.09;4964734;28;20134;-75
2023/05/29 03:56:57;;;;;;;5.00;0.10;;;;;;;10.87;44.84;102050.97;4966140;28;20061;-75
2023/05/29 03:59:24;;;;;;;2.00;0.10;;;;;;;10.88;44.90;102052.69;4962827;28;20058;-76
2023/05/29 04:01:52;;;;;;;0.70;0.10;;;;;;;10.89;44.93;102057.03;4965691;28;20051;-75
2023/05/29 04:04:19;;;;;;;4.00;0.10;;;;;;;10.86;45.03;102057.03;4964794;28;20047;-75
2023/05/29 04:06:46;;;;;;;0.30;0.10;;;;;;;10.89;44.60;102059.66;4965537;28;20174;-76
2023/05/29 04:09:13;;;;;;;3.13;0.20;;;;;;;10.89;44.95;102053.56;4967043;28;20055;-75
2023/05/29 04:11:41;;;;;;;1.35;0.10;;;;;;;10.93;45.42;102061.41;4963437;28;20070;-75
2023/05/29 04:14:08;;;;;;;2.25;0.13;;;;;;;10.95;45.27;102058.78;4969088;28;20046;-74
2023/05/29 04:16:35;;;;;;;0.73;0.10;;;;;;;10.99;45.00;102074.50;4963708;28;20145;-75
2023/05/29 04:19:04;;;;;;;1.83;0.10;;;;;;;11.03;45.29;102076.22;4965514;28;20141;-75
2023/05/29 04:21:32;;;;;;;1.05;0.13;;;;;;;11.05;45.01;102064.91;4966449;28;20590;-75
2023/05/29 04:23:59;;;;;;;3.70;0.17;;;;;;;11.14;45.67;102063.16;4965171;28;20050;-75
2023/05/29 04:26:27;;;;;;;1.23;0.00;;;;;;;11.20;45.40;102072.75;4966542;28;20051;-75
2023/05/29 04:28:57;;;;;;;1.50;0.17;;;;;;;11.30;44.99;102078.81;4967051;28;20047;-75
2023/05/29 04:31:25;;;;;;;1.10;0.08;;;;;;;11.39;45.07;102076.22;4964347;28;20463;-75
2023/05/29 04:33:54;;;;;;;2.47;0.10;;;;;;;11.47;44.45;102079.72;4967259;28;20113;-75
2023/05/29 04:36:25;;;;;;;2.83;0.15;;;;;;;11.56;44.34;102078.81;4965012;28;20051;-75
2023/05/29 04:38:52;;;;;;;0.68;0.10;;;;;;;11.64;43.98;102082.28;4966842;28;20051;-75
2023/05/29 04:41:23;;;;;;;3.10;0.10;;;;;;;11.73;44.21;102077.03;4964192;28;20053;-75
2023/05/29 04:43:50;;;;;;;2.05;0.20;;;;;;;11.81;43.99;102074.38;4965827;28;20466;-75
2023/05/29 04:46:18;;;;;;;2.45;0.10;;;;;;;11.90;44.18;102079.66;4965425;28;20062;-75
2023/05/29 04:48:46;;;;;;;1.42;0.13;;;;;;;11.99;43.73;102063.03;4964837;28;20047;-75
2023/05/29 04:51:13;;;;;;;1.23;0.13;;;;;;;12.11;43.90;102073.44;4962679;28;20134;-73
2023/05/29 04:53:42;;;;;;;1.85;0.17;;;;;;;12.22;43.02;102071.66;4967211;28;20082;-73
2023/05/29 04:56:09;;;;;;;0.90;0.20;;;;;;;12.34;42.72;102071.59;4965439;28;20051;-74
2023/05/29 04:58:36;;;;;;;1.05;0.10;;;;;;;12.45;42.36;102071.53;4964449;28;20527;-75
2023/05/29 05:01:03;;;;;;;0.95;0.10;;;;;;;12.53;42.42;102061.88;4964099;28;20142;-74
2023/05/29 05:03:33;;;;;;;4.20;0.20;;;;;;;12.65;42.41;102068.81;4966347;28;20070;-75
2023/05/29 05:06:02;;;;;;;2.92;0.20;;;;;;;12.70;42.17;102048.69;4966297;28;20351;-74
2023/05/29 05:08:29;;;;;;;1.08;0.10;;;;;;;12.83;41.72;102065.19;4966853;28;20054;-75
2023/05/29 05:10:59;;;;;;;0.73;0.10;;;;;;;12.94;42.19;102067.72;4966121;28;20495;-74
2023/05/29 05:13:26;;;;;;;3.40;0.20;;;;;;;13.04;42.27;102059.78;4966935;28;20046;-74
2023/05/29 05:15:53;;;;;;;4.05;0.20;;;;;;;13.15;42.03;102059.69;4964306;28;20563;-74
2023/05/29 05:18:20;;;;;;;2.65;0.10;;;;;;;13.24;42.02;102058.75;4964244;28;20121;-74
2023/05/29 05:20:47;;;;;;;1.65;0.10;;;;;;;13.32;42.25;102053.44;4960860;28;20126;-74
2023/05/29 05:23:14;;;;;;;3.00;0.20;;;;;;;13.42;41.55;102055.09;4962026;28;20070;-74
2023/05/29 05:25:41;;;;;;;0.85;0.17;;;;;;;13.52;41.47;102056.75;4961658;28;20046;-73
2023/05/29 05:28:11;;;;;;;2.97;0.20;;;;;;;13.59;41.55;102047.91;4963800;28;20051;-72
2023/05/29 05:30:37;;;;;;;8.98;1.75;;;;;;;13.67;41.15;102059.22;4965278;28;20055;-73
2023/05/29 05:33:04;;;;;;;0.20;0.10;;;;;;;13.75;41.26;102053.03;4963213;28;20523;-73
2023/05/29 05:35:31;;;;;;;1.08;0.22;;;;;;;13.77;41.20;102045.97;4964961;28;20051;-72
2023/05/29 05:37:58;;;;;;;1.33;0.10;;;;;;;13.83;41.06;102049.44;4963698;28;20061;-73
2023/05/29 05:40:26;;;;;;;1.33;0.17;;;;;;;13.83;40.51;102049.44;4960408;28;20137;-74
2023/05/29 05:42:53;;;;;;;2.25;0.38;;;;;;;13.89;40.40;102051.13;4963211;28;20050;-73
2023/05/29 05:45:25;;;;;;;0.70;0.10;;;;;;;13.90;40.34;102048.44;4963457;28;20134;-74
2023/05/29 05:47:51;;;;;;;2.80;0.20;;;;;;;13.92;40.19;102045.81;4961550;28;20051;-75
2023/05/29 05:50:18;;;;;;;2.72;0.25;;;;;;;13.89;39.70;102046.72;4962875;28;20047;-73
2023/05/29 05:52:45;;;;;;;1.88;0.10;;;;;;;13.92;39.95;102046.69;4964252;28;20057;-74
2023/05/29 05:55:12;;;;;;;0.88;0.10;;;;;;;13.94;39.79;102050.16;4959379;28;20499;-74
2023/05/29 05:57:39;;;;;;;2.80;0.15;;;;;;;13.97;39.55;102041.34;4964327;28;20047;-74
2023/05/29 06:00:09;;;;;;;3.30;0.10;;;;;;;13.98;39.29;102040.47;4961622;28;20049;-75
2023/05/29 06:02:38;;;;;;;4.47;0.45;;;;;;;14.01;39.62;102058.84;4965359;28;20121;-74
2023/05/29 06:05:07;;;;;;;2.67;0.20;;;;;;;14.01;39.81;102058.84;4962099;28;20135;-74
2023/05/29 06:07:34;;;;;;;6.25;0.20;;;;;;;14.03;40.03;102064.06;4967618;28;20065;-77
2023/05/29 06:10:01;;;;;;;0.93;0.10;;;;;;;14.04;39.73;102071.06;4963432;28;20130;-74
2023/05/29 06:12:28;;;;;;;3.50;0.17;;;;;;;13.98;39.67;102060.63;4964195;28;20046;-76
2023/05/29 06:14:55;;;;;;;1.77;0.20;;;;;;;14.00;39.73;102069.34;4966241;28;20054;-73
2023/05/29 06:17:22;;;;;;;0.98;0.15;;;;;;;13.98;39.55;102061.50;4963452;28;20051;-76
2023/05/29 06:19:51;;;;;;;1.30;0.20;;;;;;;13.98;39.76;102064.13;4967628;28;20058;-76
2023/05/29 06:22:18;;;;;;;1.90;0.10;;;;;;;13.98;39.32;102063.25;4962489;28;20131;-74
2023/05/29 06:24:45;;;;;;;3.40;0.30;;;;;;;13.97;39.51;102064.13;4963309;28;20057;-78
2023/05/29 06:27:12;;;;;;;2.60;0.40;;;;;;;13.95;39.65;102066.78;4961880;28;20121;-74
2023/05/29 06:29:39;;;;;;;1.95;0.20;;;;;;;13.93;40.01;102063.31;4965019;28;20082;-76
2023/05/29 06:32:06;;;;;;;3.90;0.20;;;;;;;13.92;40.22;102070.31;4960973;28;20051;-80
2023/05/29 06:34:33;;;;;;;1.70;0.15;;;;;;;13.92;40.05;102059.81;4970433;28;20532;-79
2023/05/29 06:37:02;;;;;;;3.67;0.15;;;;;;;13.93;40.18;102069.41;4964751;28;20161;-77
2023/05/29 06:39:29;;;;;;;14.82;1.00;;;;;;;13.95;40.01;102072.91;4971999;28;20043;-77
2023/05/29 06:41:56;;;;;;;3.00;0.63;;;;;;;13.98;39.89;102076.41;4965363;28;20058;-76
2023/05/29 06:44:23;;;;;;;4.53;0.13;;;;;;;13.95;39.88;102072.91;4966999;28;20054;-76
2023/05/29 06:46:50;;;;;;;2.67;0.10;;;;;;;13.94;39.49;102080.78;4964640;28;20120;-77
2023/05/29 06:49:17;;;;;;;1.55;0.30;;;;;;;13.93;39.71;102076.44;4964221;28;20054;-76
2023/05/29 06:51:45;;;;;;;2.80;0.30;;;;;;;13.96;39.62;102079.03;4965324;28;20070;-76
2023/05/29 06:54:13;;;;;;;1.05;0.10;;;;;;;14.00;39.82;102075.47;4968229;28;20047;-75
2023/05/29 06:56:41;;;;;;;1.10;0.17;;;;;;;14.05;39.87;102075.41;4967625;28;20566;-76
2023/05/29 06:59:08;;;;;;;2.90;0.30;;;;;;;13.95;40.46;102054.53;4969807;28;20042;-77
2023/05/29 07:01:35;;;;;;;2.75;0.10;;;;;;;14.11;40.40;102075.34;4967989;28;20046;-76
2023/05/29 07:04:02;;;;;;;4.82;0.10;;;;;;;14.15;39.95;102075.28;4968390;28;20050;-78
2023/05/29 07:06:46;;;;;;;1.45;0.20;;;;;;;14.23;39.97;102077.84;4966625;28;20051;-78
2023/05/29 07:09:17;;;;;;;1.15;0.20;;;;;;;14.25;40.11;102059.41;4973061;28;20061;-81
2023/05/29 07:11:44;;;;;;;2.15;0.20;;;;;;;14.42;40.04;102077.56;4975433;28;20051;-78
2023/05/29 07:14:12;;;;;;;0.98;0.10;;;;;;;14.51;40.08;102078.31;4969413;28;20554;-76
2023/05/29 07:16:48;;;;;;;4.43;0.20;;;;;;;14.61;39.88;102074.69;4966583;28;20057;-76
2023/05/29 07:19:23;;;;;;;0.90;0.20;;;;;;;14.71;39.08;102077.19;4965043;28;20051;-76
2023/05/29 07:21:53;;;;;;;5.22;0.28;;;;;;;14.77;39.45;102077.09;4969501;28;20050;-76
2023/05/29 07:24:21;;;;;;;3.38;0.28;;;;;;;14.86;38.93;102079.59;4965959;28;20042;-77
2023/05/29 07:26:48;;;;;;;1.27;0.20;;;;;;;14.93;39.47;102081.22;4972006;28;20058;-75
2023/05/29 07:29:17;;;;;;;0.95;0.20;;;;;;;15.00;39.49;102092.56;4969489;28;20053;-76
2023/05/29 07:31:44;;;;;;;4.32;0.20;;;;;;;15.06;39.39;102077.53;4966271;28;20047;-77
2023/05/29 07:34:11;;;;;;;0.70;0.20;;;;;;;15.13;38.65;102080.06;4965992;28;20408;-75
2023/05/29 07:37:02;;;;;;;0.50;0.10;;;;;;;15.20;38.24;102081.69;4964535;28;20057;-75
2023/05/29 07:39:31;;;;;;;0.45;0.10;;;;;;;15.28;39.15;102085.03;4969211;28;20081;-73
2023/05/29 07:41:58;;;;;;;1.38;0.10;;;;;;;15.36;38.79;102085.78;4964747;28;20042;-74
2023/05/29 07:44:26;;;;;;;1.25;0.20;;;;;;;15.45;38.20;102087.38;4965568;28;20066;-72
2023/05/29 07:46:53;;;;;;;2.50;0.20;;;;;;;15.53;37.86;102091.63;4965476;28;20051;-73
2023/05/29 07:49:21;;;;;;;3.90;0.20;;;;;;;15.61;38.11;102091.50;4964969;28;20049;-72
2023/05/29 07:51:48;;;;;;;1.60;0.10;;;;;;;15.67;38.56;102091.38;4966613;28;20054;-73
2023/05/29 07:54:17;;;;;;;1.00;0.17;;;;;;;15.74;38.47;102093.03;4964880;28;20050;-72
2023/05/29 07:56:46;;;;;;;0.60;0.10;;;;;;;15.81;38.00;102082.38;4967169;28;20054;-74
2023/05/29 07:59:13;;;;;;;2.35;0.45;;;;;;;15.89;37.79;102085.72;4966086;28;20127;-74
2023/05/29 08:01:40;;;;;;;1.95;0.10;;;;;;;15.92;37.39;102083.03;4966700;28;20427;-72
2023/05/29 08:04:07;;;;;;;1.15;0.13;;;;;;;15.99;37.70;102076.72;4964885;28;20055;-72
2023/05/29 08:06:43;;;;;;;2.10;0.20;;;;;;;16.04;37.21;102079.28;4963656;28;20138;-73
2023/05/29 08:09:11;;;;;;;0.90;0.45;;;;;;;16.07;37.00;102084.50;4968017;28;20688;-72
2023/05/29 08:11:38;;;;;;;1.45;0.20;;;;;;;16.09;36.34;102072.16;4962223;28;20043;-73
2023/05/29 08:14:07;;;;;;;0.95;0.17;;;;;;;16.06;36.46;102067.81;4967311;28;20142;-72
2023/05/29 08:16:34;;;;;;;4.50;0.20;;;;;;;16.06;37.04;102064.31;4967539;28;20070;-71
2023/05/29 08:19:01;;;;;;;0.95;0.10;;;;;;;16.11;36.97;102070.38;4969710;28;20051;-74
2023/05/29 08:21:28;;;;;;;0.60;0.10;;;;;;;16.14;37.36;102067.66;4962912;28;20051;-73
2023/05/29 08:23:55;;;;;;;1.95;0.10;;;;;;;16.17;38.03;102064.97;4967845;28;20507;-73
2023/05/29 08:26:22;;;;;;;2.03;0.20;;;;;;;16.19;37.54;102069.31;4964714;28;20043;-73
2023/05/29 08:28:49;;;;;;;1.70;0.10;;;;;;;16.23;37.50;102066.59;4966721;28;20050;-73
2023/05/29 08:31:18;;;;;;;1.42;0.45;;;;;;;16.27;36.79;102063.84;4965483;28;20047;-73
2023/05/29 08:33:45;;;;;;;1.00;0.10;;;;;;;16.26;36.57;102062.13;4967792;28;20058;-71
2023/05/29 08:36:12;;;;;;;2.35;0.10;;;;;;;16.24;36.84;102066.53;4962895;28;20507;-71
2023/05/29 08:38:41;;;;;;;4.35;0.20;;;;;;;16.14;36.63;102036.03;4967608;28;20061;-73
2023/05/29 08:41:09;;;;;;;2.35;0.20;;;;;;;16.28;37.47;102057.69;4964929;28;20051;-71
2023/05/29 08:43:42;;;;;;;1.77;0.20;;;;;;;16.29;37.55;102062.06;4964686;28;20061;-71
2023/05/29 08:46:10;;;;;;;2.65;0.10;;;;;;;16.37;36.74;102059.25;4964937;28;20061;-73
2023/05/29 08:48:41;;;;;;;3.67;0.20;;;;;;;16.39;36.64;102060.97;4963272;28;20050;-74
2023/05/29 08:51:11;;;;;;;0.80;0.20;;;;;;;16.40;36.26;102061.81;4962965;28;20047;-74
2023/05/29 08:53:38;;;;;;;2.35;0.10;;;;;;;16.45;37.19;102059.94;4962933;28;20359;-74
2023/05/29 08:56:06;;;;;;;3.30;0.10;;;;;;;16.49;37.60;102060.75;4967237;28;20057;-74
2023/05/29 08:58:35;;;;;;;2.38;0.10;;;;;;;16.53;37.03;102059.75;4964983;28;20054;-72
2023/05/29 09:01:03;;;;;;;0.95;0.10;;;;;;;16.55;36.96;102057.97;4965025;28;20463;-74
2023/05/29 09:03:30;;;;;;;1.33;0.20;;;;;;;16.56;37.13;102064.97;4964352;28;20054;-74
2023/05/29 09:06:04;;;;;;;1.65;0.17;;;;;;;16.59;36.23;102062.25;4962777;28;20130;-73
2023/05/29 09:08:31;;;;;;;2.10;0.30;;;;;;;16.58;36.25;102056.13;4965471;28;20050;-72
2023/05/29 09:10:58;;;;;;;3.13;0.10;;;;;;;16.61;37.36;102050.75;4966659;28;20484;-73
2023/05/29 09:13:28;;;;;;;2.70;0.10;;;;;;;16.62;37.15;102047.25;4965045;28;20058;-73
2023/05/29 09:15:58;;;;;;;3.58;0.15;;;;;;;16.54;37.12;102033.38;4965328;28;20076;-74
2023/05/29 09:18:30;;;;;;;1.55;0.30;;;;;;;16.68;37.03;102042.69;4966885;28;20046;-71
2023/05/29 09:20:57;;;;;;;1.98;0.13;;;;;;;16.70;37.53;102038.25;4958400;28;20122;-72
2023/05/29 09:23:26;;;;;;;1.25;0.15;;;;;;;16.74;37.52;102034.66;4964463;28;20427;-72
2023/05/29 09:25:54;;;;;;;0.95;0.10;;;;;;;16.76;37.33;102030.19;4963209;28;20038;-73
2023/05/29 09:28:26;;;;;;;0.90;0.10;;;;;;;16.80;37.40;102032.78;4962389;28;20791;-73
2023/05/29 09:30:53;;;;;;;6.40;0.10;;;;;;;16.82;37.74;102030.97;4962434;28;20066;-73
2023/05/29 09:33:20;;;;;;;1.92;0.10;;;;;;;16.86;37.47;102024.69;4965962;28;20049;-73
2023/05/29 09:35:49;;;;;;;1.50;0.20;;;;;;;16.89;37.41;102022.91;4961853;28;20047;-72
2023/05/29 09:38:17;;;;;;;3.28;0.10;;;;;;;16.89;37.47;102022.91;4964850;28;20875;-72
2023/05/29 09:40:46;;;;;;;1.60;0.20;;;;;;;16.86;36.25;102018.56;4961004;28;20532;-72
2023/05/29 09:43:16;;;;;;;0.82;0.10;;;;;;;16.75;36.41;102010.88;4963580;28;20050;-72
2023/05/29 09:45:45;;;;;;;2.60;0.13;;;;;;;16.84;37.01;102015.94;4964229;28;20043;-72
2023/05/29 09:48:14;;;;;;;0.95;0.10;;;;;;;16.93;37.23;102013.97;4961734;28;20498;-73
2023/05/29 09:50:44;;;;;;;1.23;0.17;;;;;;;16.96;36.89;102012.16;4963617;28;20137;-72
2023/05/29 09:53:23;;;;;;;1.48;0.20;;;;;;;16.98;36.65;102006.81;4963824;28;20515;-73
2023/05/29 09:55:52;;;;;;;3.10;0.20;;;;;;;16.91;36.44;101989.41;4961370;28;20043;-73
2023/05/29 09:58:20;;;;;;;1.38;0.20;;;;;;;17.01;36.94;101997.03;4964996;28;20129;-73
2023/05/29 10:00:49;;;;;;;2.38;0.10;;;;;;;17.05;36.82;102005.78;4962133;28;20055;-72
2023/05/29 10:03:17;;;;;;;0.30;0.10;;;;;;;17.02;36.06;101990.00;4964987;28;20053;-73
2023/05/29 10:05:48;;;;;;;1.60;0.10;;;;;;;17.09;36.15;102002.13;4957471;28;20096;-73
2023/05/29 10:08:19;;;;;;;2.75;0.10;;;;;;;17.11;36.34;101997.69;4965595;28;20058;-71
2023/05/29 10:10:49;;;;;;;4.80;0.40;;;;;;;16.99;36.13;101985.69;4967742;28;20440;-73
2023/05/29 10:13:18;;;;;;;1.52;0.10;;;;;;;17.04;36.15;101980.25;4962847;28;20058;-72
2023/05/29 10:15:47;;;;;;;5.82;0.25;;;;;;;17.15;36.28;101988.75;4966024;28;20149;-70
2023/05/29 10:18:21;;;;;;;3.25;0.10;;;;;;;17.18;36.30;101988.69;4965771;28;20047;-71
2023/05/29 10:20:58;;;;;;;1.73;0.10;;;;;;;17.23;36.43;101986.78;4962666;28;20043;-71
2023/05/29 10:23:26;;;;;;;2.38;0.10;;;;;;;17.29;36.12;101991.91;4965013;28;20078;-71
2023/05/29 10:25:56;;;;;;;2.80;0.60;;;;;;;17.36;36.05;101986.44;4962236;28;20053;-71
2023/05/29 10:28:25;;;;;;;4.75;0.20;;;;;;;17.40;35.54;101981.03;4970803;28;20149;-71
2023/05/29 10:30:56;;;;;;;4.22;0.30;;;;;;;17.44;36.04;101982.69;4962921;28;20050;-71
2023/05/29 10:33:43;;;;;;;3.00;0.30;;;;;;;17.47;36.41;101985.22;4964756;28;20055;-71
2023/05/29 10:36:15;;;;;;;0.85;0.15;;;;;;;17.51;36.97;101980.75;4968889;28;20066;-70
2023/05/29 10:38:44;;;;;;;1.27;0.20;;;;;;;17.51;36.95;101978.13;4969030;28;20061;-71
2023/05/29 10:41:40;;;;;;;3.40;0.15;;;;;;;17.58;36.97;101982.28;4968255;28;20049;-70
2023/05/29 10:44:42;;;;;;;2.10;0.52;;;;;;;17.60;37.36;101982.28;4964985;28;20047;-70
2023/05/29 10:47:12;;;;;;;1.38;0.20;;;;;;;17.52;37.40;101971.91;4887137;29;20054;-71
2023/05/29 10:49:39;;;;;;;0.80;0.10;;;;;;;17.48;37.52;101976.41;4891075;29;20478;-71
2023/05/29 10:52:09;;;;;;;3.58;0.20;;;;;;;17.43;37.42;101970.41;4926453;28;20135;-70
2023/05/29 10:54:53;;;;;;;3.33;0.10;;;;;;;17.45;37.06;101983.56;4964029;28;20109;-73
2023/05/29 10:57:22;;;;;;;3.53;0.20;;;;;;;17.42;37.79;101979.25;4965730;28;20565;-74
2023/05/29 11:00:11;;;;;;;1.58;0.10;;;;;;;17.43;37.47;101982.75;4966636;28;20419;-71
2023/05/29 11:02:39;;;;;;;1.25;0.10;;;;;;;17.36;37.32;101984.69;4969706;28;20061;-72
2023/05/29 11:05:20;;;;;;;5.45;0.20;;;;;;;17.28;37.39;101979.63;4965050;28;20051;-71
2023/05/29 11:08:08;;;;;;;1.95;0.10;;;;;;;17.27;37.18;101977.84;4968154;28;20578;-74
2023/05/29 11:10:45;;;;;;;1.25;0.15;;;;;;;17.23;37.46;101978.88;4962038;28;20047;-73
2023/05/29 11:13:25;;;;;;;1.58;0.10;;;;;;;17.14;38.03;101968.56;4967316;28;20773;-71
2023/05/29 11:16:14;;;;;;;1.65;0.10;;;;;;;17.16;38.16;101976.41;4966263;28;20140;-72
2023/05/29 11:18:46;;;;;;;2.58;0.10;;;;;;;17.11;38.63;101971.28;4970080;28;20057;-72
2023/05/29 11:21:34;;;;;;;2.45;0.15;;;;;;;17.02;38.65;101971.53;4968857;28;20482;-79
2023/05/29 11:24:04;;;;;;;2.47;0.20;;;;;;;16.95;38.92;101969.94;4971249;28;20046;-79
2023/05/29 11:26:32;;;;;;;1.58;0.30;;;;;;;16.89;39.45;101973.59;4967991;28;20492;-76
2023/05/29 11:29:00;;;;;;;7.78;0.30;;;;;;;16.87;39.60;101985.97;4971831;28;20503;-77
2023/05/29 11:31:36;;;;;;;2.50;0.63;;;;;;;16.84;39.53;101981.63;4967267;28;20051;-78
2023/05/29 11:34:05;;;;;;;2.40;0.20;;;;;;;16.81;39.72;101972.94;4965667;28;20051;-75